Time;durP1;ratioP1;P1;durP2;ratioP2;P2;SDS_P1;SDS_P2;PMS_P1;PMS_P2;Temp;Humidity;BMP_temperature;BMP_pressure;BME280_temperature;BME280_humidity;BME280_pressure;Samples;Min_cycle;Max_cycle;Signal;HPM_P1;HPM_P2
2024/04/13 00:02:19;;;;;;;5.43;1.10;;;13.50;99.90;;;;;;5493416;26;20993;-54
2024/04/13 00:04:45;;;;;;;3.43;0.87;;;13.50;99.90;;;;;;5493582;26;20533;-50
2024/04/13 00:07:14;;;;;;;1.23;0.70;;;13.40;1.00;;;;;;5490801;26;20473;-52
2024/04/13 00:09:40;;;;;;;1.57;0.83;;;13.40;99.90;;;;;;5491002;26;20775;-54
2024/04/13 00:12:09;;;;;;;0.73;0.57;;;13.40;1.00;;;;;;5491528;26;20547;-54
2024/04/13 00:14:37;;;;;;;2.63;0.80;;;13.30;1.00;;;;;;5487012;26;20454;-53
2024/04/13 00:17:07;;;;;;;2.70;0.90;;;13.30;1.00;;;;;;5491220;26;20457;-53
2024/04/13 00:19:35;;;;;;;1.37;0.87;;;13.30;1.00;;;;;;5486374;26;20624;-55
2024/04/13 00:22:04;;;;;;;1.30;0.70;;;13.30;1.00;;;;;;5492777;26;20528;-54
2024/04/13 00:24:32;;;;;;;1.80;1.00;;;13.20;38.90;;;;;;5492802;26;20465;-53
2024/04/13 00:27:01;;;;;;;1.20;0.80;;;13.20;99.90;;;;;;5492724;26;20461;-51
2024/04/13 00:29:27;;;;;;;3.27;1.00;;;13.20;99.90;;;;;;5488659;26;20458;-54
2024/04/13 00:31:59;;;;;;;1.50;1.00;;;13.10;99.90;;;;;;5493131;26;20906;-53
2024/04/13 00:34:25;;;;;;;1.63;0.80;;;13.00;99.90;;;;;;5492942;26;20724;-55
2024/04/13 00:36:54;;;;;;;1.10;0.80;;;13.00;1.00;;;;;;5492965;26;20893;-54
2024/04/13 00:39:20;;;;;;;2.37;0.87;;;13.00;1.00;;;;;;5493419;26;20474;-53
2024/04/13 00:41:49;;;;;;;1.50;0.80;;;12.90;1.00;;;;;;5495115;26;20765;-51
2024/04/13 00:44:16;;;;;;;3.70;0.80;;;13.00;1.00;;;;;;5493122;26;20496;-55
2024/04/13 00:46:45;;;;;;;2.53;0.80;;;12.90;1.00;;;;;;5493423;26;20522;-53
2024/04/13 00:49:14;;;;;;;1.97;0.90;;;12.90;1.00;;;;;;5488096;26;20466;-57
2024/04/13 00:51:46;;;;;;;1.27;0.70;;;12.90;1.00;;;;;;5495063;26;20789;-52
2024/04/13 00:54:14;;;;;;;1.37;0.83;;;12.90;1.00;;;;;;5492743;26;20468;-51
2024/04/13 00:56:43;;;;;;;3.00;0.80;;;12.80;35.20;;;;;;5493655;26;20457;-54
2024/04/13 00:59:10;;;;;;;2.10;0.87;;;12.80;99.90;;;;;;5492508;26;20466;-54
2024/04/13 01:01:40;;;;;;;1.23;0.60;;;12.80;1.00;;;;;;5487509;26;20862;-54
2024/04/13 01:04:08;;;;;;;1.83;1.00;;;12.70;1.00;;;;;;5493228;26;20526;-50
2024/04/13 01:06:40;;;;;;;2.60;1.00;;;12.70;99.90;;;;;;5492172;26;20470;-53
2024/04/13 01:09:07;;;;;;;4.47;1.07;;;12.70;99.90;;;;;;5492258;26;20530;-52
2024/04/13 01:11:38;;;;;;;0.90;0.67;;;12.60;1.00;;;;;;5492787;26;20453;-53
2024/04/13 01:14:05;;;;;;;1.93;0.70;;;12.60;1.00;;;;;;5493146;26;20578;-49
2024/04/13 01:16:35;;;;;;;1.20;0.70;;;12.60;1.00;;;;;;5492869;26;20794;-52
2024/04/13 01:19:01;;;;;;;1.43;0.60;;;12.70;1.00;;;;;;5487235;26;20482;-53
2024/04/13 01:21:30;;;;;;;1.93;0.60;;;12.60;1.00;;;;;;5489309;26;20814;-49
2024/04/13 01:24:04;;;;;;;1.20;0.70;;;12.60;1.00;;;;;;5486280;26;20461;-51
2024/04/13 01:26:37;;;;;;;1.63;0.70;;;12.60;1.00;;;;;;5489942;26;20446;-51
2024/04/13 01:29:05;;;;;;;2.73;0.80;;;12.50;1.00;;;;;;5489352;26;20494;-54
2024/04/13 01:31:36;;;;;;;1.20;0.70;;;12.50;1.00;;;;;;5480499;26;20465;-53
2024/04/13 01:34:02;;;;;;;1.33;0.60;;;12.50;1.00;;;;;;5471824;26;20554;-54
2024/04/13 01:36:38;;;;;;;0.90;0.70;;;12.50;1.00;;;;;;5469009;26;20476;-54
2024/04/13 01:39:08;;;;;;;1.10;0.80;;;12.50;1.00;;;;;;5471023;26;20463;-52
2024/04/13 01:41:39;;;;;;;2.07;0.70;;;12.40;1.00;;;;;;5473977;26;20817;-52
2024/04/13 01:44:06;;;;;;;1.03;0.70;;;12.40;99.90;;;;;;5476182;26;20454;-54
2024/04/13 01:46:35;;;;;;;2.10;0.50;;;12.30;1.00;;;;;;5473285;26;20463;-55
2024/04/13 01:49:03;;;;;;;1.00;0.67;;;12.30;1.00;;;;;;5480772;26;20471;-52
2024/04/13 01:51:32;;;;;;;1.03;0.70;;;12.30;99.90;;;;;;5472682;26;20467;-54
2024/04/13 01:53:59;;;;;;;0.80;0.60;;;12.20;99.90;;;;;;5474395;26;20719;-52
2024/04/13 01:56:31;;;;;;;1.60;0.70;;;12.20;1.00;;;;;;5476379;26;20453;-51
2024/04/13 01:58:57;;;;;;;2.63;0.90;;;12.20;1.00;;;;;;5473234;26;20947;-54
2024/04/13 02:01:27;;;;;;;2.20;0.80;;;12.10;1.00;;;;;;5475686;26;21710;-53
2024/04/13 02:03:53;;;;;;;3.27;0.70;;;12.10;1.00;;;;;;5456170;26;20861;-56
2024/04/13 02:06:22;;;;;;;1.10;0.70;;;12.20;1.00;;;;;;5456376;26;20526;-53
2024/04/13 02:08:48;;;;;;;1.10;0.70;;;12.20;1.00;;;;;;5456292;26;20774;-54
2024/04/13 02:11:17;;;;;;;1.10;0.83;;;12.20;1.00;;;;;;5456206;26;20459;-53
2024/04/13 02:13:46;;;;;;;1.37;0.87;;;12.10;1.00;;;;;;5455963;26;20544;-55
2024/04/13 02:16:15;;;;;;;0.70;0.47;;;12.10;1.00;;;;;;5473228;26;20483;-52
2024/04/13 02:18:41;;;;;;;1.30;0.70;;;12.10;1.00;;;;;;5472799;26;20564;-56
2024/04/13 02:21:10;;;;;;;1.20;1.00;;;12.30;1.00;;;;;;5475893;26;20485;-53
2024/04/13 02:23:36;;;;;;;1.83;0.90;;;12.20;1.00;;;;;;5473869;26;20879;-51
2024/04/13 02:26:07;;;;;;;1.30;0.80;;;12.20;1.00;;;;;;5472780;26;20462;-51
2024/04/13 02:28:34;;;;;;;1.70;0.80;;;12.20;35.90;;;;;;5474759;26;20925;-47
2024/04/13 02:31:07;;;;;;;1.80;0.80;;;12.10;99.90;;;;;;5474812;26;20716;-51
2024/04/13 02:33:33;;;;;;;1.07;0.70;;;12.10;99.90;;;;;;5455416;26;20628;-53
2024/04/13 02:36:03;;;;;;;1.00;0.63;;;12.10;95.90;;;;;;5455118;26;20464;-57
2024/04/13 02:38:29;;;;;;;3.63;0.80;;;12.10;14.90;;;;;;5455231;26;21050;-53
2024/04/13 02:40:59;;;;;;;0.90;0.70;;;12.10;1.00;;;;;;5455482;26;20483;-51
2024/04/13 02:43:25;;;;;;;2.23;0.70;;;12.10;1.00;;;;;;5455174;26;20479;-52
2024/04/13 02:45:54;;;;;;;0.80;0.70;;;12.00;45.10;;;;;;5475351;26;20579;-50
2024/04/13 02:48:23;;;;;;;1.00;0.70;;;12.00;99.90;;;;;;5481944;26;21016;-52
2024/04/13 02:50:52;;;;;;;0.93;0.60;;;11.90;99.90;;;;;;5471413;26;20463;-53
2024/04/13 02:53:18;;;;;;;1.13;0.70;;;11.80;99.90;;;;;;5471624;26;20456;-52
2024/04/13 02:55:47;;;;;;;1.93;0.70;;;11.80;99.90;;;;;;5471978;26;20474;-52
2024/04/13 02:58:13;;;;;;;1.57;0.70;;;11.80;99.90;;;;;;5455603;26;20557;-51
2024/04/13 03:00:42;;;;;;;1.53;0.90;;;11.70;99.90;;;;;;5471336;26;20466;-53
2024/04/13 03:03:08;;;;;;;3.10;0.70;;;11.70;99.90;;;;;;5468535;26;20516;-54
2024/04/13 03:05:40;;;;;;;4.30;0.97;;;11.70;99.90;;;;;;5472048;26;20458;-52
2024/04/13 03:08:06;;;;;;;1.13;0.70;;;11.70;99.90;;;;;;5473127;26;20506;-54
2024/04/13 03:10:35;;;;;;;1.23;0.73;;;11.70;99.90;;;;;;5469655;26;20475;-58
2024/04/13 03:13:01;;;;;;;1.47;0.60;;;11.70;99.90;;;;;;5473452;26;20516;-52
2024/04/13 03:15:30;;;;;;;1.10;0.70;;;11.70;99.90;;;;;;5471928;26;20474;-53
2024/04/13 03:17:56;;;;;;;1.20;0.70;;;11.70;1.00;;;;;;5476914;26;20500;-53
2024/04/13 03:20:25;;;;;;;1.20;0.70;;;11.70;1.00;;;;;;5477806;26;20506;-55
2024/04/13 03:22:54;;;;;;;1.60;0.60;;;11.70;1.00;;;;;;5474773;26;20774;-54
2024/04/13 03:25:23;;;;;;;1.60;0.63;;;11.70;1.00;;;;;;5474283;26;20987;-54
2024/04/13 03:27:49;;;;;;;3.87;0.93;;;11.70;1.00;;;;;;5474433;26;20920;-53
2024/04/13 03:30:18;;;;;;;1.17;0.70;;;11.70;1.00;;;;;;5477141;26;20549;-52
2024/04/13 03:32:44;;;;;;;1.10;0.87;;;11.70;1.00;;;;;;5477672;26;20451;-48
2024/04/13 03:35:13;;;;;;;1.10;0.80;;;11.70;1.00;;;;;;5478909;26;20518;-52
2024/04/13 03:37:39;;;;;;;2.67;0.80;;;11.80;1.00;;;;;;5486670;26;20476;-51
2024/04/13 03:40:13;;;;;;;1.00;0.60;;;11.80;1.00;;;;;;5492801;26;20527;-52
2024/04/13 03:42:46;;;;;;;2.20;0.93;;;11.80;1.00;;;;;;5471257;26;20718;-51
2024/04/13 03:45:13;;;;;;;1.37;0.73;;;11.80;99.90;;;;;;5478670;26;20522;-51
2024/04/13 03:47:43;;;;;;;0.93;0.80;;;11.80;1.00;;;;;;5476397;26;20554;-49
2024/04/13 03:50:12;;;;;;;1.10;0.70;;;11.70;1.00;;;;;;5478545;26;20462;-50
2024/04/13 03:52:38;;;;;;;2.47;0.80;;;11.80;99.90;;;;;;5476826;26;20473;-51
2024/04/13 03:55:10;;;;;;;1.10;0.70;;;11.70;1.00;;;;;;5473302;26;20524;-54
2024/04/13 03:57:36;;;;;;;1.33;0.90;;;11.80;1.00;;;;;;5484387;26;20468;-55
2024/04/13 04:00:09;;;;;;;2.63;0.90;;;11.80;1.00;;;;;;5486815;26;20538;-52
2024/04/13 04:02:35;;;;;;;2.70;0.80;;;11.70;1.00;;;;;;5473865;26;20455;-52
2024/04/13 04:05:06;;;;;;;2.20;0.90;;;11.70;1.00;;;;;;5475071;26;20576;-55
2024/04/13 04:07:32;;;;;;;1.20;0.80;;;11.70;1.00;;;;;;5477470;26;20508;-53
2024/04/13 04:10:04;;;;;;;3.30;0.93;;;11.70;1.00;;;;;;5471532;26;20840;-54
2024/04/13 04:12:35;;;;;;;1.20;0.73;;;11.70;1.00;;;;;;5473168;26;20783;-52
2024/04/13 04:15:04;;;;;;;1.10;0.70;;;11.70;1.00;;;;;;5475311;26;20478;-54
2024/04/13 04:17:30;;;;;;;1.47;0.90;;;11.70;1.00;;;;;;5477857;26;20446;-52
2024/04/13 04:19:59;;;;;;;1.70;0.70;;;11.60;1.00;;;;;;5474949;26;20734;-52
2024/04/13 04:22:26;;;;;;;1.10;0.60;;;11.60;1.00;;;;;;5480535;26;20470;-52
2024/04/13 04:24:55;;;;;;;1.27;0.70;;;11.50;1.00;;;;;;5473745;26;20463;-55
2024/04/13 04:27:21;;;;;;;1.53;0.70;;;11.50;1.00;;;;;;5480396;26;20462;-53
2024/04/13 04:29:52;;;;;;;2.33;0.70;;;11.50;1.00;;;;;;5474806;26;20471;-54
2024/04/13 04:32:18;;;;;;;1.00;0.70;;;11.40;1.00;;;;;;5475524;26;20446;-51
2024/04/13 04:34:47;;;;;;;1.37;0.70;;;11.50;1.00;;;;;;5480031;26;20587;-53
2024/04/13 04:37:13;;;;;;;1.57;0.70;;;11.50;1.00;;;;;;5478275;26;20527;-54
2024/04/13 04:39:42;;;;;;;1.17;0.80;;;11.40;1.00;;;;;;5474371;26;20473;-54
2024/04/13 04:42:08;;;;;;;1.00;0.90;;;11.40;1.00;;;;;;5477262;26;20567;-50
2024/04/13 04:44:37;;;;;;;1.43;0.80;;;11.50;1.00;;;;;;5473083;26;20451;-52
2024/04/13 04:47:06;;;;;;;1.70;0.70;;;11.50;1.00;;;;;;5474640;26;20502;-53
2024/04/13 04:49:35;;;;;;;3.33;0.80;;;11.50;1.00;;;;;;5477607;26;20467;-54
2024/04/13 04:52:01;;;;;;;1.47;0.70;;;11.50;1.00;;;;;;5474675;26;20566;-54
2024/04/13 04:54:30;;;;;;;1.00;0.70;;;11.50;1.00;;;;;;5473369;26;20525;-55
2024/04/13 04:56:57;;;;;;;1.63;0.70;;;11.60;1.00;;;;;;5474947;26;20473;-54
2024/04/13 04:59:25;;;;;;;7.80;1.00;;;11.60;1.00;;;;;;5481370;26;20541;-54
2024/04/13 05:01:51;;;;;;;1.00;0.70;;;11.70;1.00;;;;;;5471727;26;20523;-55
2024/04/13 05:04:23;;;;;;;4.63;0.80;;;11.70;1.00;;;;;;5475227;26;20530;-54
2024/04/13 05:06:49;;;;;;;3.40;0.97;;;11.70;1.00;;;;;;5476792;26;20478;-55
2024/04/13 05:09:19;;;;;;;1.67;0.90;;;11.70;1.00;;;;;;5473535;26;20483;-52
2024/04/13 05:11:45;;;;;;;1.63;0.83;;;11.70;1.00;;;;;;5456418;26;20467;-53
2024/04/13 05:14:18;;;;;;;1.27;0.83;;;11.80;1.00;;;;;;5466255;26;20506;-54
2024/04/13 05:16:44;;;;;;;1.23;0.70;;;11.80;1.00;;;;;;5486753;26;20720;-57
2024/04/13 05:19:13;;;;;;;1.27;0.90;;;11.80;1.00;;;;;;5476191;26;20581;-53
2024/04/13 05:21:42;;;;;;;1.40;0.80;;;11.80;1.00;;;;;;5483567;26;20469;-56
2024/04/13 05:24:11;;;;;;;1.20;0.90;;;11.80;1.00;;;;;;5476818;26;20562;-54
2024/04/13 05:26:37;;;;;;;1.93;1.00;;;11.80;1.00;;;;;;5474098;26;21003;-56
2024/04/13 05:29:06;;;;;;;2.13;1.10;;;11.70;1.00;;;;;;5474190;26;20454;-54
2024/04/13 05:31:32;;;;;;;1.63;0.80;;;11.70;1.00;;;;;;5476695;26;20466;-56
2024/04/13 05:34:01;;;;;;;2.50;0.77;;;11.70;1.00;;;;;;5472425;26;20475;-56
2024/04/13 05:36:27;;;;;;;1.73;0.80;;;11.70;1.00;;;;;;5472946;26;20466;-55
2024/04/13 05:38:59;;;;;;;2.53;1.00;;;11.80;1.00;;;;;;5472720;26;20528;-55
2024/04/13 05:41:25;;;;;;;0.90;0.77;;;11.90;1.00;;;;;;5473318;26;20465;-53
2024/04/13 05:43:53;;;;;;;1.40;0.77;;;11.90;1.00;;;;;;5485617;26;20466;-54
2024/04/13 05:46:19;;;;;;;1.80;1.27;;;11.80;1.00;;;;;;5490596;26;20470;-54
2024/04/13 05:48:48;;;;;;;3.13;0.90;;;11.80;1.00;;;;;;5483518;26;20524;-54
2024/04/13 05:51:14;;;;;;;1.77;0.97;;;11.90;1.00;;;;;;5524724;26;21286;-55
2024/04/13 05:53:43;;;;;;;3.40;0.97;;;11.90;1.00;;;;;;5526934;26;20453;-51
2024/04/13 05:56:11;;;;;;;1.70;0.80;;;11.80;1.00;;;;;;5526544;26;20497;-54
2024/04/13 05:58:40;;;;;;;1.70;0.90;;;11.80;1.00;;;;;;5526231;26;20787;-54
2024/04/13 06:01:06;;;;;;;1.90;0.73;;;11.70;1.00;;;;;;5501385;26;20516;-55
2024/04/13 06:03:35;;;;;;;1.13;0.80;;;11.70;1.00;;;;;;5490819;26;21004;-54
2024/04/13 06:06:01;;;;;;;2.10;1.20;;;11.80;1.00;;;;;;5474938;26;20524;-53
2024/04/13 06:08:29;;;;;;;1.60;0.80;;;11.90;1.00;;;;;;5492791;26;20874;-55
2024/04/13 06:10:55;;;;;;;1.30;1.00;;;11.90;1.00;;;;;;5492255;26;20500;-52
2024/04/13 06:13:27;;;;;;;1.30;0.80;;;12.00;1.00;;;;;;5491651;26;20822;-55
2024/04/13 06:15:53;;;;;;;2.00;0.80;;;12.10;99.90;;;;;;5492066;26;20450;-55
2024/04/13 06:18:22;;;;;;;1.50;0.80;;;12.20;99.90;;;;;;5491846;26;20760;-52
2024/04/13 06:20:49;;;;;;;2.80;1.00;;;12.30;99.90;;;;;;5493194;26;20442;-54
2024/04/13 06:23:17;;;;;;;1.00;0.70;;;12.40;86.00;;;;;;5527926;26;20457;-55
2024/04/13 06:25:46;;;;;;;1.20;0.80;;;12.50;1.00;;;;;;5529100;26;20513;-50
2024/04/13 06:28:15;;;;;;;1.10;0.60;;;12.60;1.00;;;;;;5521132;26;20453;-53
2024/04/13 06:30:44;;;;;;;1.33;0.80;;;12.70;1.00;;;;;;5473326;26;20523;-54
2024/04/13 06:33:13;;;;;;;1.60;0.77;;;12.80;1.00;;;;;;5483082;26;20528;-51
2024/04/13 06:35:38;;;;;;;2.20;0.73;;;12.90;1.00;;;;;;5497771;26;20708;-55
2024/04/13 06:38:07;;;;;;;2.70;0.80;;;13.00;99.90;;;;;;5488910;26;20502;-52
2024/04/13 06:40:35;;;;;;;1.60;0.80;;;13.00;99.90;;;;;;5468959;26;20472;-51
2024/04/13 06:43:04;;;;;;;2.60;1.10;;;13.20;99.90;;;;;;5452061;26;20463;-53
2024/04/13 06:45:30;;;;;;;1.60;0.80;;;13.30;99.90;;;;;;5449928;26;20459;-51
2024/04/13 06:48:02;;;;;;;2.20;0.90;;;13.30;99.90;;;;;;5420758;26;20503;-55
2024/04/13 06:50:28;;;;;;;1.00;0.80;;;13.40;50.00;;;;;;5487140;26;20832;-55
2024/04/13 06:52:57;;;;;;;5.80;0.70;;;13.40;1.00;;;;;;5481044;26;20751;-54
2024/04/13 06:55:23;;;;;;;1.17;0.70;;;13.50;1.00;;;;;;5488743;26;20514;-53
2024/04/13 06:57:52;;;;;;;1.30;0.70;;;13.60;99.90;;;;;;5478199;26;20479;-59
2024/04/13 07:00:19;;;;;;;1.63;0.80;;;13.70;99.90;;;;;;5479735;26;20871;-60
2024/04/13 07:02:48;;;;;;;1.00;0.70;;;13.80;99.90;;;;;;5482713;26;20455;-60
2024/04/13 07:05:18;;;;;;;1.00;0.70;;;13.90;99.90;;;;;;5469148;26;20803;-60
2024/04/13 07:07:46;;;;;;;2.27;0.70;;;14.10;99.90;;;;;;5471721;26;20574;-59
2024/04/13 07:10:12;;;;;;;0.70;0.60;;;14.20;1.00;;;;;;5472676;26;20547;-59
2024/04/13 07:12:42;;;;;;;1.00;0.80;;;14.40;1.00;;;;;;5471482;26;20568;-59
2024/04/13 07:15:09;;;;;;;1.10;0.83;;;14.50;1.00;;;;;;5478651;26;20471;-59
2024/04/13 07:17:38;;;;;;;1.67;0.90;;;14.60;99.90;;;;;;5474783;26;20454;-58
2024/04/13 07:20:06;;;;;;;1.90;1.00;;;14.70;99.90;;;;;;5469459;26;20357;-59
2024/04/13 07:22:38;;;;;;;3.20;0.90;;;14.70;94.10;;;;;;5472239;26;20546;-58
2024/04/13 07:25:04;;;;;;;3.03;0.97;;;14.80;47.80;;;;;;5473583;26;20473;-59
2024/04/13 07:27:33;;;;;;;3.27;1.07;;;14.90;1.00;;;;;;5474569;26;20481;-60
2024/04/13 07:29:59;;;;;;;1.70;1.00;;;15.00;1.00;;;;;;5477476;26;20515;-61
2024/04/13 07:32:28;;;;;;;2.57;1.00;;;15.10;1.00;;;;;;5470307;26;20536;-60
2024/04/13 07:34:54;;;;;;;2.13;1.10;;;15.10;1.00;;;;;;5472360;26;20466;-58
2024/04/13 07:37:24;;;;;;;1.90;1.00;;;15.20;1.00;;;;;;5472818;26;20797;-59
2024/04/13 07:39:53;;;;;;;6.70;1.43;;;15.30;1.00;;;;;;5470345;26;20471;-59
2024/04/13 07:42:22;;;;;;;2.57;1.00;;;15.40;1.00;;;;;;5469220;26;20475;-58
2024/04/13 07:44:49;;;;;;;2.13;1.10;;;15.50;1.00;;;;;;5476535;26;20773;-59
2024/04/13 07:47:17;;;;;;;1.30;1.00;;;15.50;1.00;;;;;;5469470;26;20443;-59
2024/04/13 07:49:43;;;;;;;2.40;1.10;;;15.50;1.00;;;;;;5467423;26;20471;-58
2024/04/13 07:52:12;;;;;;;1.37;0.97;;;15.50;1.00;;;;;;5471506;26;20987;-58
2024/04/13 07:54:38;;;;;;;5.80;2.73;;;15.60;1.00;;;;;;5470036;26;20582;-58
2024/04/13 07:57:15;;;;;;;3.93;1.57;;;15.80;1.00;;;;;;5470488;26;20475;-58
2024/04/13 07:59:41;;;;;;;1.40;1.00;;;15.90;1.00;;;;;;5465897;26;20902;-62
2024/04/13 08:02:10;;;;;;;2.37;0.97;;;16.00;99.90;;;;;;5474829;26;20530;-59
2024/04/13 08:04:36;;;;;;;1.50;0.90;;;16.10;99.90;;;;;;5475364;26;20525;-59
2024/04/13 08:07:06;;;;;;;4.50;1.40;;;16.10;99.90;;;;;;5472657;26;20526;-58
2024/04/13 08:09:36;;;;;;;2.63;1.10;;;16.30;99.90;;;;;;5468950;26;20521;-59
2024/04/13 08:12:05;;;;;;;2.43;1.10;;;16.30;99.90;;;;;;5467312;26;20537;-59
2024/04/13 08:14:34;;;;;;;2.90;1.13;;;16.30;99.90;;;;;;5457170;26;20459;-59
2024/04/13 08:17:03;;;;;;;1.23;0.83;;;16.40;99.90;;;;;;5471788;26;20450;-58
2024/04/13 08:19:29;;;;;;;2.47;1.13;;;16.50;99.90;;;;;;5475640;26;20465;-59
2024/04/13 08:21:58;;;;;;;5.13;0.90;;;16.60;99.90;;;;;;5475643;26;20478;-60
2024/04/13 08:24:26;;;;;;;1.43;0.97;;;16.70;99.90;;;;;;5462684;26;20542;-59
2024/04/13 08:26:53;;;;;;;3.73;1.53;;;16.80;99.90;;;;;;5472583;26;20502;-58
2024/04/13 08:29:22;;;;;;;2.53;0.90;;;17.00;99.90;;;;;;5485171;26;20493;-59
2024/04/13 08:31:54;;;;;;;1.20;0.90;;;17.20;99.90;;;;;;5476649;26;20518;-59
2024/04/13 08:34:26;;;;;;;2.03;1.00;;;17.30;99.90;;;;;;5455470;26;20513;-59
2024/04/13 08:36:53;;;;;;;1.40;0.80;;;17.40;99.90;;;;;;5465488;26;20599;-59
2024/04/13 08:39:21;;;;;;;1.23;0.90;;;17.60;94.00;;;;;;5529465;26;20516;-58
2024/04/13 08:41:56;;;;;;;1.40;1.20;;;17.70;87.70;;;;;;5513546;26;20360;-59
2024/04/13 08:44:25;;;;;;;2.10;0.90;;;17.90;60.80;;;;;;5514466;26;20219;-58
2024/04/13 08:46:54;;;;;;;1.50;0.87;;;18.10;33.50;;;;;;5516069;26;20514;-59
2024/04/13 08:49:25;;;;;;;1.73;0.80;;;18.30;19.20;;;;;;5492332;26;20569;-59
2024/04/13 08:51:51;;;;;;;1.63;0.93;;;18.40;11.00;;;;;;5489273;26;20471;-60
2024/04/13 08:54:19;;;;;;;3.53;1.30;;;18.60;1.00;;;;;;5492246;26;20578;-60
2024/04/13 08:56:47;;;;;;;1.33;0.93;;;18.60;1.00;;;;;;5491359;26;20832;-60
2024/04/13 08:59:17;;;;;;;1.27;0.80;;;18.80;1.00;;;;;;5489774;26;20570;-59
2024/04/13 09:01:44;;;;;;;1.30;0.90;;;18.90;1.00;;;;;;5490891;26;20454;-60
2024/04/13 09:04:15;;;;;;;0.93;0.60;;;19.00;1.00;;;;;;5489323;26;20508;-59
2024/04/13 09:06:43;;;;;;;1.00;0.80;;;19.20;1.00;;;;;;5491856;26;20768;-59
2024/04/13 09:09:13;;;;;;;1.57;0.90;;;19.30;1.00;;;;;;5490807;26;20761;-60
2024/04/13 09:11:39;;;;;;;1.00;0.70;;;19.40;1.00;;;;;;5494781;26;20574;-60
2024/04/13 09:14:08;;;;;;;5.13;0.97;;;19.50;1.00;;;;;;5528395;26;20445;-59
2024/04/13 09:16:34;;;;;;;1.27;0.80;;;19.70;1.00;;;;;;5465184;26;20467;-58
2024/04/13 09:19:03;;;;;;;1.57;0.90;;;19.80;1.00;;;;;;5456970;26;20467;-58
2024/04/13 09:21:34;;;;;;;1.67;0.83;;;19.90;1.00;;;;;;5526739;26;20774;-61
2024/04/13 09:24:04;;;;;;;2.30;0.90;;;20.00;1.00;;;;;;5528332;26;20508;-60
2024/04/13 09:26:39;;;;;;;1.00;0.80;;;20.10;1.00;;;;;;5528554;26;20788;-59
2024/04/13 09:29:08;;;;;;;5.40;0.80;;;20.30;1.00;;;;;;5519925;26;20517;-59
2024/04/13 09:31:39;;;;;;;1.27;0.93;;;20.40;1.00;;;;;;5492297;26;20506;-59
2024/04/13 09:34:08;;;;;;;0.77;0.57;;;20.50;1.00;;;;;;5497059;26;20469;-60
2024/04/13 09:36:37;;;;;;;2.63;0.80;;;20.60;1.00;;;;;;5513820;26;20656;-60
2024/04/13 09:39:06;;;;;;;2.63;0.70;;;20.80;1.00;;;;;;5524925;26;20741;-60
2024/04/13 09:41:32;;;;;;;0.70;0.60;;;20.80;1.00;;;;;;5528914;26;21073;-60
2024/04/13 09:44:00;;;;;;;1.57;0.70;;;20.90;1.00;;;;;;5528780;26;20517;-60
2024/04/13 09:46:27;;;;;;;1.00;0.60;;;21.00;1.00;;;;;;5529049;26;20715;-60
2024/04/13 09:48:58;;;;;;;1.33;0.60;;;21.20;1.00;;;;;;5528973;26;20456;-60
2024/04/13 09:51:24;;;;;;;5.60;0.70;;;21.40;1.00;;;;;;5523843;26;20520;-61
2024/04/13 09:53:57;;;;;;;1.90;0.80;;;21.40;1.00;;;;;;5494235;26;20453;-60
2024/04/13 09:56:23;;;;;;;1.17;0.70;;;21.50;1.00;;;;;;5482122;26;20517;-60
2024/04/13 09:58:52;;;;;;;1.10;0.60;;;21.60;1.00;;;;;;5513664;26;20468;-61
2024/04/13 10:01:18;;;;;;;0.80;0.60;;;21.80;1.00;;;;;;5491537;26;20450;-61
2024/04/13 10:03:47;;;;;;;0.60;0.40;;;21.90;1.00;;;;;;5493351;26;20584;-60
2024/04/13 10:06:15;;;;;;;3.13;0.60;;;22.00;1.00;;;;;;5489520;26;20462;-60
2024/04/13 10:08:45;;;;;;;1.77;0.53;;;22.20;1.00;;;;;;5489961;26;20559;-60
2024/04/13 10:11:15;;;;;;;0.70;0.50;;;22.30;1.00;;;;;;5491712;26;20447;-59
2024/04/13 10:13:49;;;;;;;0.87;0.47;;;22.50;1.00;;;;;;5490996;26;20482;-61
2024/04/13 10:16:16;;;;;;;0.60;0.40;;;22.80;1.00;;;;;;5490490;26;20454;-59
2024/04/13 10:18:46;;;;;;;0.57;0.40;;;22.90;1.00;;;;;;5468818;26;20487;-59
2024/04/13 10:21:12;;;;;;;4.63;0.60;;;23.10;1.00;;;;;;5461892;26;20661;-60
2024/04/13 10:23:42;;;;;;;0.90;0.60;;;23.30;1.00;;;;;;5457022;26;20607;-58
2024/04/13 10:26:08;;;;;;;1.30;0.70;;;23.30;1.00;;;;;;5454762;26;20483;-63
2024/04/13 10:28:40;;;;;;;1.57;0.60;;;23.40;1.00;;;;;;5457916;26;20466;-58
2024/04/13 10:31:17;;;;;;;0.80;0.50;;;23.50;1.00;;;;;;5460101;26;20718;-60
2024/04/13 10:33:55;;;;;;;1.10;0.50;;;23.70;1.00;;;;;;5477671;26;20464;-60
2024/04/13 10:36:27;;;;;;;0.70;0.50;;;23.60;1.00;;;;;;5448613;26;20485;-61
2024/04/13 10:38:58;;;;;;;1.33;0.50;;;23.70;1.00;;;;;;5452400;26;20473;-61
2024/04/13 10:41:34;;;;;;;1.70;0.50;;;23.80;1.00;;;;;;5463445;26;20468;-59
2024/04/13 10:44:09;;;;;;;0.60;0.50;;;23.80;1.00;;;;;;5486068;26;20999;-59
2024/04/13 10:46:35;;;;;;;1.37;0.50;;;23.90;1.00;;;;;;5487945;26;20799;-59
2024/04/13 10:49:04;;;;;;;0.63;0.40;;;24.00;1.00;;;;;;5480635;26;20511;-59
2024/04/13 10:51:31;;;;;;;0.83;0.50;;;24.00;1.00;;;;;;5466733;26;21133;-61
2024/04/13 10:54:00;;;;;;;3.20;0.50;;;24.00;1.00;;;;;;5483527;26;20556;-60
2024/04/13 10:56:26;;;;;;;0.67;0.50;;;24.20;1.00;;;;;;5484508;26;20602;-60
2024/04/13 10:58:55;;;;;;;0.70;0.50;;;24.30;1.00;;;;;;5477448;26;20926;-60
2024/04/13 11:01:24;;;;;;;0.70;0.50;;;24.50;1.00;;;;;;5463306;26;20521;-59
2024/04/13 11:04:03;;;;;;;0.67;0.50;;;24.70;1.00;;;;;;5475687;26;20485;-58
2024/04/13 11:06:30;;;;;;;0.80;0.50;;;24.70;1.00;;;;;;5509632;26;20524;-61
2024/04/13 11:08:59;;;;;;;0.90;0.50;;;25.00;1.00;;;;;;5478990;26;20517;-61
2024/04/13 11:11:25;;;;;;;2.63;0.60;;;25.20;1.00;;;;;;5473741;26;20457;-61
2024/04/13 11:13:54;;;;;;;0.70;0.50;;;25.30;1.00;;;;;;5487272;26;20476;-63
2024/04/13 11:16:23;;;;;;;0.70;0.40;;;25.40;1.00;;;;;;5480069;26;20526;-62
2024/04/13 11:18:52;;;;;;;1.53;0.60;;;25.50;1.00;;;;;;5488759;26;20462;-61
2024/04/13 11:21:22;;;;;;;0.97;0.60;;;25.60;1.00;;;;;;5482419;26;20521;-63
2024/04/13 11:23:51;;;;;;;1.13;0.50;;;25.70;1.00;;;;;;5470803;26;20443;-60
2024/04/13 11:26:17;;;;;;;0.70;0.50;;;25.80;1.00;;;;;;5482892;26;20841;-60
2024/04/13 11:28:46;;;;;;;1.63;0.60;;;26.10;1.00;;;;;;5470936;26;20473;-60
2024/04/13 11:31:12;;;;;;;1.30;0.60;;;26.30;1.00;;;;;;5451315;26;20471;-61
2024/04/13 11:33:44;;;;;;;1.00;0.53;;;26.50;1.00;;;;;;5485405;26;20470;-60
2024/04/13 11:36:17;;;;;;;1.27;0.50;;;26.40;1.00;;;;;;5478598;26;20591;-60
2024/04/13 11:38:46;;;;;;;1.03;0.60;;;26.30;1.00;;;;;;5476719;26;20470;-61
2024/04/13 11:41:13;;;;;;;0.70;0.50;;;26.30;1.00;;;;;;5461141;26;21103;-61
2024/04/13 11:43:41;;;;;;;1.93;0.60;;;26.30;1.00;;;;;;5456563;26;20517;-60
2024/04/13 11:46:07;;;;;;;1.07;0.50;;;26.20;1.00;;;;;;5489235;26;20525;-60
2024/04/13 11:48:37;;;;;;;1.80;0.50;;;26.20;1.00;;;;;;5474758;26;20459;-60
2024/04/13 11:51:06;;;;;;;0.80;0.50;;;26.40;1.00;;;;;;5480659;26;20774;-61
2024/04/13 11:53:35;;;;;;;0.70;0.47;;;26.40;1.00;;;;;;5478957;26;20463;-60
2024/04/13 11:56:07;;;;;;;0.93;0.80;;;26.30;1.00;;;;;;5461264;26;20447;-60
2024/04/13 11:58:37;;;;;;;0.83;0.50;;;26.40;1.00;;;;;;5474529;26;20775;-60
2024/04/13 12:01:03;;;;;;;1.37;0.50;;;26.30;1.00;;;;;;5463756;26;20465;-62
2024/04/13 12:03:32;;;;;;;0.87;0.60;;;26.30;1.00;;;;;;5502963;26;20466;-61
2024/04/13 12:05:58;;;;;;;0.80;0.50;;;26.40;1.00;;;;;;5470708;26;20467;-59
2024/04/13 12:08:29;;;;;;;1.33;0.40;;;26.70;1.00;;;;;;5460073;26;20475;-61
2024/04/13 12:10:57;;;;;;;1.47;0.50;;;26.70;1.00;;;;;;5454811;26;20531;-61
2024/04/13 12:13:26;;;;;;;0.70;0.47;;;26.60;1.00;;;;;;5464330;26;20896;-61
2024/04/13 12:15:52;;;;;;;2.17;0.60;;;26.50;1.00;;;;;;5475880;26;20518;-61
2024/04/13 12:18:21;;;;;;;0.70;0.40;;;26.60;1.00;;;;;;5464427;26;20475;-61
2024/04/13 12:20:47;;;;;;;0.70;0.50;;;26.20;1.00;;;;;;5457041;26;20848;-62
2024/04/13 12:23:16;;;;;;;1.00;0.60;;;26.40;1.00;;;;;;5457284;26;21232;-60
2024/04/13 12:25:44;;;;;;;0.70;0.50;;;26.50;1.00;;;;;;5453313;26;20877;-61
2024/04/13 12:28:13;;;;;;;0.90;0.60;;;26.70;1.00;;;;;;5460141;26;20554;-61
2024/04/13 12:30:39;;;;;;;0.87;0.40;;;26.90;1.00;;;;;;5454514;26;20471;-61
2024/04/13 12:33:08;;;;;;;1.03;0.50;;;26.90;1.00;;;;;;5457884;26;20466;-61
2024/04/13 12:35:35;;;;;;;0.67;0.50;;;26.90;1.00;;;;;;5474366;26;20542;-61
2024/04/13 12:38:04;;;;;;;2.03;0.50;;;27.10;1.00;;;;;;5461185;26;20920;-62
2024/04/13 12:40:30;;;;;;;0.70;0.40;;;26.90;1.00;;;;;;5457073;26;20494;-62
2024/04/13 12:43:02;;;;;;;0.70;0.50;;;26.90;1.00;;;;;;5469382;26;20528;-61
2024/04/13 12:45:28;;;;;;;0.70;0.50;;;26.90;1.00;;;;;;5506515;26;20462;-62
2024/04/13 12:47:56;;;;;;;0.70;0.50;;;27.00;1.00;;;;;;5487996;26;20531;-61
2024/04/13 12:50:22;;;;;;;0.90;0.50;;;27.10;1.00;;;;;;5466856;26;20462;-60
2024/04/13 12:52:52;;;;;;;0.57;0.40;;;27.10;1.00;;;;;;5471038;26;22136;-61
2024/04/13 12:55:18;;;;;;;0.80;0.50;;;27.20;1.00;;;;;;5461382;26;20591;-61
2024/04/13 12:57:48;;;;;;;1.20;0.60;;;27.20;1.00;;;;;;5472197;26;20463;-61
2024/04/13 13:00:17;;;;;;;0.97;0.50;;;27.20;1.00;;;;;;5487628;26;20479;-60
2024/04/13 13:02:46;;;;;;;0.83;0.40;;;27.20;1.00;;;;;;5452426;26;20804;-61